»·PEaware :: N129WS KSBD-KVNY

N129WS :: KSBD-KVNY

FLIGHT INFORMATION

Flight Status: Arrived
Operator: Privately registered:
United States
More flights under this callsign
Pilot: Michael M. (12217)
Aircraft: Unknown
(PIPA)
More flights by this aircraft type
Origin: KSBD San Bernardino Intl
United States
Destination: KVNY Van Nuys
United States
More flights between these airports :: More routes between these airports
Route: +PDZ V186 VNY
File this flight plan on PilotEdge
Remarks: TEC route ONTN1
Altitude:
(Current/Filed)
6,000ft
Speed:
(Current/Filed)
220kts
Departed: 15-Jun-17 09:49 AM
Arrived: 15-Jun-17 10:20 AM
Distance/Time
Traveled:
63nm/0:31
Distance/Time
To Go:
Arrived

Flight Plot

Page will automatically refresh every two minutes.


Map Options




Map Legend


Flown Route
Filed Route
Departure Airport
Arrival Airport
Navaid (VOR, NDB)
Fix

Horizontal Profiles

Position Reports

Time Latitude Longitude Heading Altitude Ground
Speed
15-Jun-17 09:20 34.101492 -117.223312 179 1148ft 0kts
15-Jun-17 09:21 34.101492 -117.223312 179 1148ft 0kts
15-Jun-17 09:22 34.101492 -117.223312 179 1148ft 0kts
15-Jun-17 09:23 34.101492 -117.223312 179 1148ft 0kts
15-Jun-17 09:24 34.101492 -117.223312 179 1148ft 0kts
15-Jun-17 09:25 34.101492 -117.223312 179 1148ft 0kts
15-Jun-17 09:26 34.101492 -117.223312 179 1148ft 0kts
15-Jun-17 09:27 34.101492 -117.223312 179 1148ft 0kts
15-Jun-17 09:28 34.101492 -117.223312 179 1148ft 0kts
15-Jun-17 09:29 34.101492 -117.223312 179 1148ft 0kts
15-Jun-17 09:30 34.101492 -117.223312 179 1148ft 0kts
15-Jun-17 09:31 34.101492 -117.223312 179 1148ft 0kts
15-Jun-17 09:32 34.101492 -117.223312 179 1148ft 0kts
15-Jun-17 09:33 34.101492 -117.223312 179 1148ft 0kts
15-Jun-17 09:34 34.101492 -117.223312 179 1148ft 0kts
15-Jun-17 09:35 34.101492 -117.223312 179 1148ft 0kts
15-Jun-17 09:36 34.101492 -117.223312 179 1148ft 0kts
15-Jun-17 09:37 34.101492 -117.223312 179 1148ft 0kts
15-Jun-17 09:38 34.101262 -117.223309 179 1148ft 1kts
15-Jun-17 09:39 34.099897 -117.224673 248 1146ft 14kts
15-Jun-17 09:40 34.099371 -117.227414 274 1137ft 12kts
15-Jun-17 09:41 34.097784 -117.233004 251 1123ft 20kts
15-Jun-17 09:42 34.096110 -117.238565 247 1109ft 14kts
15-Jun-17 09:43 34.094769 -117.243168 245 1096ft 16kts
15-Jun-17 09:44 34.093117 -117.248804 253 1085ft 18kts
15-Jun-17 09:45 34.092224 -117.251327 120 1080ft 0kts
15-Jun-17 09:46 34.092224 -117.251327 120 1080ft 0kts
15-Jun-17 09:47 34.092224 -117.251327 120 1080ft 0kts
15-Jun-17 09:48 34.092224 -117.251327 120 1080ft 0kts
15-Jun-17 09:49 34.093131 -117.248878 71 1085ft 23kts
15-Jun-17 09:50 34.092588 -117.250492 251 1082ft 27kts
15-Jun-17 09:51 34.095789 -117.233855 68 1334ft 101kts
15-Jun-17 09:52 34.093783 -117.194122 156 2240ft 167kts
15-Jun-17 09:53 34.067639 -117.232404 253 3113ft 178kts
15-Jun-17 09:54 34.055182 -117.272515 246 3670ft 184kts
15-Jun-17 09:55 34.031905 -117.327264 240 3688ft 193kts
15-Jun-17 09:56 34.003941 -117.381860 237 3686ft 190kts
15-Jun-17 09:57 33.974417 -117.434361 235 3685ft 190kts
15-Jun-17 09:58 33.944356 -117.485374 235 3759ft 188kts
15-Jun-17 09:59 33.923062 -117.533793 289 5295ft 152kts
15-Jun-17 10:00 33.939016 -117.582934 292 5992ft 181kts
15-Jun-17 10:01 33.959329 -117.643198 292 5985ft 202kts
15-Jun-17 10:02 33.980752 -117.705468 292 5986ft 207kts
15-Jun-17 10:03 34.002347 -117.769196 290 5988ft 201kts
15-Jun-17 10:04 34.021733 -117.831858 290 5994ft 198kts
15-Jun-17 10:05 34.040926 -117.894013 290 5997ft 198kts
15-Jun-17 10:06 34.060060 -117.956099 290 5997ft 198kts
15-Jun-17 10:07 34.078725 -118.016788 290 5994ft 187kts
15-Jun-17 10:08 34.096530 -118.074786 290 5991ft 183kts
15-Jun-17 10:09 34.114059 -118.132006 290 5989ft 182kts
15-Jun-17 10:10 34.131333 -118.188515 290 5983ft 171kts
15-Jun-17 10:11 34.146319 -118.237681 288 5982ft 158kts
15-Jun-17 10:12 34.148080 -118.289433 271 5998ft 152kts
15-Jun-17 10:13 34.149253 -118.345175 272 5051ft 181kts
15-Jun-17 10:14 34.150672 -118.406387 272 4009ft 172kts
15-Jun-17 10:15 34.151882 -118.456249 272 3999ft 136kts
15-Jun-17 10:16 34.153078 -118.502200 272 4003ft 138kts
15-Jun-17 10:17 34.164381 -118.543242 338 3768ft 146kts
15-Jun-17 10:18 34.200908 -118.552655 351 3602ft 131kts
15-Jun-17 10:19 34.233234 -118.554579 29 2763ft 91kts
15-Jun-17 10:20 34.230126 -118.525956 132 2205ft 115kts
15-Jun-17 10:21 34.227449 -118.491840 137 1439ft 95kts
15-Jun-17 10:22 34.209973 -118.491050 260 775ft 0kts

Navigation Log

Ident Type
Flight plan parsing failed, navigation log unavailable